createdAt,value
2017-10-22T00:01:52.249Z,9.00
2017-10-22T00:04:19.805Z,8.80
2017-10-22T00:06:47.277Z,8.20
2017-10-22T00:09:15.497Z,7.70
2017-10-22T00:11:42.972Z,8.67
2017-10-22T00:14:10.447Z,8.10
2017-10-22T00:16:37.909Z,8.90
2017-10-22T00:19:05.369Z,8.67
2017-10-22T00:21:32.837Z,8.00
2017-10-22T00:24:01.078Z,9.40
2017-10-22T00:26:28.557Z,9.27
2017-10-22T00:28:56.043Z,9.13
2017-10-22T00:31:23.564Z,9.60
2017-10-22T00:33:51.793Z,8.87
2017-10-22T00:36:19.288Z,10.00
2017-10-22T00:38:46.751Z,9.03
2017-10-22T00:41:14.318Z,9.00
2017-10-22T00:43:41.799Z,8.60
2017-10-22T00:46:09.264Z,9.30
2017-10-22T00:48:36.790Z,8.77
2017-10-22T00:51:04.271Z,10.17
2017-10-22T00:53:32.502Z,9.60
2017-10-22T00:55:59.973Z,10.40
2017-10-22T00:58:27.448Z,10.17
2017-10-22T01:00:55.695Z,10.50
2017-10-22T01:03:23.161Z,8.77
2017-10-22T01:05:50.638Z,10.80
2017-10-22T01:08:18.902Z,10.17
2017-10-22T01:10:46.378Z,10.27
2017-10-22T01:13:14.645Z,11.33
2017-10-22T01:15:42.881Z,11.50
2017-10-22T01:18:10.465Z,11.50
2017-10-22T01:20:37.934Z,10.03
2017-10-22T01:23:06.198Z,11.00
2017-10-22T01:25:33.675Z,10.27
2017-10-22T01:28:01.930Z,11.57
2017-10-22T01:30:29.396Z,11.30
2017-10-22T01:32:57.678Z,11.80
2017-10-22T01:35:25.947Z,12.83
2017-10-22T01:37:53.400Z,11.30
2017-10-22T01:40:21.646Z,11.60
2017-10-22T01:42:49.113Z,11.40
2017-10-22T01:45:16.606Z,11.10
2017-10-22T01:47:44.072Z,11.27
2017-10-22T01:50:11.582Z,10.93
2017-10-22T01:52:39.051Z,11.60
2017-10-22T01:55:06.523Z,10.87
2017-10-22T01:57:34.762Z,12.97
2017-10-22T02:00:02.233Z,10.57
2017-10-22T02:02:29.709Z,10.20
2017-10-22T02:04:57.953Z,12.30
2017-10-22T02:07:25.524Z,10.90
2017-10-22T02:09:52.998Z,10.80
2017-10-22T02:12:21.242Z,11.53
2017-10-22T02:14:48.826Z,11.57
2017-10-22T02:17:16.301Z,11.77
2017-10-22T02:19:44.610Z,10.63
2017-10-22T02:22:12.082Z,10.43
2017-10-22T02:24:39.625Z,10.30
2017-10-22T02:27:07.090Z,10.77
2017-10-22T02:29:34.581Z,10.83
2017-10-22T02:32:02.049Z,10.83
2017-10-22T02:34:29.592Z,11.00
2017-10-22T02:36:57.153Z,11.20
2017-10-22T02:39:24.612Z,11.40
2017-10-22T02:41:52.169Z,10.77
2017-10-22T02:44:19.636Z,10.87
2017-10-22T02:46:47.108Z,11.60
2017-10-22T02:49:15.354Z,11.33
2017-10-22T02:51:42.817Z,10.70
2017-10-22T02:54:10.369Z,9.77
2017-10-22T02:56:37.929Z,9.70
2017-10-22T02:59:05.498Z,10.40
2017-10-22T03:01:33.050Z,10.70
2017-10-22T03:04:00.525Z,9.40
2017-10-22T03:06:28.775Z,10.30
2017-10-22T03:08:56.308Z,10.37
2017-10-22T03:11:23.781Z,9.80
2017-10-22T03:13:51.370Z,10.00
2017-10-22T03:16:18.825Z,9.70
2017-10-22T03:18:46.298Z,9.37
2017-10-22T03:21:14.558Z,10.20
2017-10-22T03:23:42.022Z,8.83
2017-10-22T03:26:10.261Z,8.87
2017-10-22T03:28:37.832Z,8.43
2017-10-22T03:31:05.302Z,7.57
2017-10-22T03:33:32.753Z,7.70
2017-10-22T03:36:00.306Z,6.80
2017-10-22T03:38:27.765Z,6.97
2017-10-22T03:40:55.384Z,7.00
2017-10-22T03:43:22.889Z,6.70
2017-10-22T03:45:50.353Z,5.80
2017-10-22T03:48:18.580Z,6.37
2017-10-22T03:50:46.084Z,5.97
2017-10-22T03:53:13.633Z,5.93
2017-10-22T03:55:41.199Z,5.47
2017-10-22T03:58:08.738Z,5.50
2017-10-22T04:00:36.209Z,6.20
2017-10-22T04:03:03.664Z,5.07
2017-10-22T04:05:31.226Z,4.90
2017-10-22T04:07:58.736Z,6.30
2017-10-22T04:10:26.238Z,5.10
2017-10-22T04:12:53.701Z,6.00
2017-10-22T04:15:21.960Z,4.73
2017-10-22T04:17:49.423Z,6.23
2017-10-22T04:20:17.000Z,5.10
2017-10-22T04:22:44.470Z,5.93
2017-10-22T04:25:12.727Z,5.03
2017-10-22T04:27:40.206Z,4.87
2017-10-22T04:30:07.741Z,6.27
2017-10-22T04:32:35.293Z,6.03
2017-10-22T04:35:02.762Z,4.37
2017-10-22T04:37:31.001Z,5.13
2017-10-22T04:39:58.462Z,4.90
2017-10-22T04:42:26.039Z,4.47
2017-10-22T04:44:53.493Z,5.60
2017-10-22T04:47:20.967Z,4.80
2017-10-22T04:49:49.221Z,4.70
2017-10-22T04:52:16.686Z,5.20
2017-10-22T04:54:44.232Z,4.73
2017-10-22T04:57:11.812Z,5.63
2017-10-22T04:59:39.273Z,4.60
2017-10-22T05:02:07.505Z,4.37
2017-10-22T05:04:34.993Z,4.97
2017-10-22T05:07:02.447Z,4.97
2017-10-22T05:09:30.031Z,5.60
2017-10-22T05:11:58.257Z,5.07
2017-10-22T05:14:25.723Z,5.20
2017-10-22T05:16:53.186Z,4.87
2017-10-22T05:19:20.645Z,5.07
2017-10-22T05:21:48.118Z,5.30
2017-10-22T05:24:15.577Z,4.93
2017-10-22T05:26:43.837Z,5.27
2017-10-22T05:29:11.296Z,4.40
2017-10-22T05:31:38.856Z,5.60
2017-10-22T05:34:06.323Z,4.70
2017-10-22T05:36:34.586Z,4.70
2017-10-22T05:39:05.973Z,4.70
2017-10-22T05:41:33.446Z,5.40
2017-10-22T05:44:00.902Z,5.07
2017-10-22T05:46:28.370Z,4.90
2017-10-22T05:48:55.862Z,5.43
2017-10-22T05:51:23.413Z,5.07
2017-10-22T05:53:50.872Z,5.20
2017-10-22T05:56:18.491Z,4.10
2017-10-22T05:58:45.993Z,4.40
2017-10-22T06:01:13.462Z,4.90
2017-10-22T06:03:41.783Z,4.13
2017-10-22T06:06:09.262Z,4.27
2017-10-22T06:08:36.739Z,4.20
2017-10-22T06:11:04.223Z,3.73
2017-10-22T06:13:32.474Z,4.07
2017-10-22T06:15:59.946Z,4.70
2017-10-22T06:18:28.262Z,4.37
2017-10-22T06:20:55.821Z,3.50
2017-10-22T06:23:23.322Z,3.77
2017-10-22T06:25:50.794Z,3.70
2017-10-22T06:28:19.039Z,3.07
2017-10-22T06:30:46.504Z,3.13
2017-10-22T06:33:13.977Z,3.10
2017-10-22T06:35:41.437Z,3.40
2017-10-22T06:38:08.893Z,3.57
2017-10-22T06:40:37.171Z,3.50
2017-10-22T06:43:04.622Z,2.83
2017-10-22T06:45:32.898Z,2.93
2017-10-22T06:48:00.453Z,3.10
2017-10-22T06:50:28.001Z,3.30
2017-10-22T06:52:55.573Z,2.70
2017-10-22T06:55:23.801Z,2.60
2017-10-22T06:57:51.269Z,2.30
2017-10-22T07:00:18.759Z,2.70
2017-10-22T07:02:46.304Z,3.00
2017-10-22T07:05:13.779Z,2.47
2017-10-22T07:07:41.248Z,2.80
2017-10-22T07:10:09.499Z,2.50
2017-10-22T07:12:36.968Z,3.63
2017-10-22T07:15:05.238Z,2.70
2017-10-22T07:17:33.470Z,3.03
2017-10-22T07:20:00.970Z,2.33
2017-10-22T07:22:28.421Z,2.30
2017-10-22T07:24:55.981Z,2.10
2017-10-22T07:27:23.457Z,2.23
2017-10-22T07:29:51.819Z,3.20
2017-10-22T07:32:19.285Z,2.30
2017-10-22T07:34:47.545Z,2.33
2017-10-22T07:37:15.100Z,1.90
2017-10-22T07:39:42.565Z,2.77
2017-10-22T07:42:10.113Z,2.50
2017-10-22T07:44:37.678Z,2.13
2017-10-22T07:47:05.141Z,2.57
2017-10-22T07:49:32.602Z,2.00
2017-10-22T07:52:00.159Z,1.80
2017-10-22T07:54:27.736Z,1.70
2017-10-22T07:56:55.962Z,2.13
2017-10-22T07:59:23.428Z,2.00
2017-10-22T08:01:50.901Z,1.67
2017-10-22T08:04:18.356Z,2.47
2017-10-22T08:06:45.818Z,1.63
2017-10-22T08:09:13.301Z,1.67
2017-10-22T08:11:41.540Z,1.97
2017-10-22T08:14:09.001Z,2.17
2017-10-22T08:16:37.245Z,1.77
2017-10-22T08:19:04.711Z,1.80
2017-10-22T08:21:32.168Z,1.93
2017-10-22T08:23:59.628Z,2.10
2017-10-22T08:26:27.102Z,1.70
2017-10-22T08:28:54.663Z,2.00
2017-10-22T08:31:22.126Z,2.23
2017-10-22T08:33:49.683Z,2.47
2017-10-22T08:36:17.140Z,1.90
2017-10-22T08:38:44.605Z,1.93
2017-10-22T08:41:12.865Z,1.80
2017-10-22T08:43:40.334Z,2.00
2017-10-22T08:46:08.600Z,1.60
2017-10-22T08:48:36.163Z,2.20
2017-10-22T08:51:03.621Z,1.80
2017-10-22T08:53:31.881Z,2.03
2017-10-22T08:55:59.450Z,2.30
2017-10-22T08:58:26.956Z,1.57
2017-10-22T09:00:54.427Z,2.20
2017-10-22T09:03:21.892Z,2.30
2017-10-22T09:05:49.365Z,2.30
2017-10-22T09:08:16.830Z,1.80
2017-10-22T09:10:44.396Z,1.87
2017-10-22T09:13:12.720Z,2.07
2017-10-22T09:15:40.221Z,2.40
2017-10-22T09:18:07.706Z,2.03
2017-10-22T09:20:35.955Z,1.80
2017-10-22T09:23:03.419Z,1.80
2017-10-22T09:25:30.885Z,1.97
2017-10-22T09:27:59.142Z,1.50
2017-10-22T09:30:26.693Z,2.10
2017-10-22T09:32:54.258Z,1.80
2017-10-22T09:35:21.745Z,1.73
2017-10-22T09:37:49.994Z,2.07
2017-10-22T09:40:17.560Z,1.90
2017-10-22T09:42:45.884Z,1.60
2017-10-22T09:45:13.390Z,1.83
2017-10-22T09:47:40.872Z,2.10
2017-10-22T09:50:08.348Z,1.80
2017-10-22T09:52:35.858Z,1.90
2017-10-22T09:55:03.326Z,2.10
2017-10-22T09:57:30.929Z,1.60
2017-10-22T09:59:58.399Z,1.90
2017-10-22T10:02:25.868Z,1.60
2017-10-22T10:04:53.340Z,2.00
2017-10-22T10:07:20.905Z,1.53
2017-10-22T10:09:49.150Z,1.40
2017-10-22T10:12:16.638Z,2.00
2017-10-22T10:14:44.113Z,1.60
2017-10-22T10:17:12.329Z,2.33
2017-10-22T10:19:39.821Z,1.53
2017-10-22T10:22:07.282Z,1.83
2017-10-22T10:24:36.263Z,1.93
2017-10-22T10:27:03.712Z,1.60
2017-10-22T10:29:31.289Z,2.00
2017-10-22T10:31:58.801Z,1.77
2017-10-22T10:34:26.253Z,1.67
2017-10-22T10:36:53.744Z,2.00
2017-10-22T10:39:21.233Z,1.63
2017-10-22T10:41:49.486Z,1.90
2017-10-22T10:44:16.949Z,1.50
2017-10-22T10:46:44.506Z,1.80
2017-10-22T10:49:12.061Z,2.07
2017-10-22T10:51:39.626Z,1.70
2017-10-22T10:54:07.077Z,1.83
2017-10-22T10:56:34.593Z,2.10
2017-10-22T10:59:02.098Z,1.93
2017-10-22T11:01:29.652Z,1.63
2017-10-22T11:03:57.105Z,1.10
2017-10-22T11:06:26.098Z,1.80
2017-10-22T11:08:53.563Z,2.00
2017-10-22T11:11:21.117Z,1.80
2017-10-22T11:13:48.683Z,1.80
2017-10-22T11:16:16.143Z,1.70
2017-10-22T11:18:43.601Z,1.47
2017-10-22T11:21:11.062Z,1.37
2017-10-22T11:23:39.289Z,2.20
2017-10-22T11:26:06.779Z,2.07
2017-10-22T11:28:34.334Z,1.80
2017-10-22T11:31:01.892Z,1.50
2017-10-22T11:33:29.444Z,1.30
2017-10-22T11:35:57.008Z,1.53
2017-10-22T11:38:24.586Z,1.47
2017-10-22T11:40:52.143Z,1.47
2017-10-22T11:43:19.643Z,1.80
2017-10-22T11:45:47.091Z,1.30
2017-10-22T11:48:14.554Z,2.30
2017-10-22T11:50:42.053Z,1.57
2017-10-22T11:53:09.537Z,1.70
2017-10-22T11:55:37.759Z,1.80
2017-10-22T11:58:05.220Z,1.97
2017-10-22T12:00:32.763Z,1.47
2017-10-22T12:03:00.231Z,1.80
2017-10-22T12:05:27.685Z,1.70
2017-10-22T12:07:55.141Z,1.63
2017-10-22T12:10:22.637Z,2.20
2017-10-22T12:12:50.099Z,2.40
2017-10-22T12:15:18.350Z,1.57
2017-10-22T12:17:45.816Z,1.70
2017-10-22T12:20:13.273Z,2.10
2017-10-22T12:22:40.829Z,1.70
2017-10-22T12:25:08.400Z,1.63
2017-10-22T12:27:35.861Z,1.47
2017-10-22T12:30:04.094Z,1.80
2017-10-22T12:32:31.548Z,1.90
2017-10-22T12:34:59.018Z,2.00
2017-10-22T12:37:26.499Z,1.67
2017-10-22T12:39:54.052Z,1.50
2017-10-22T12:42:21.517Z,1.73
2017-10-22T12:44:48.978Z,2.67
2017-10-22T12:47:16.482Z,2.30
2017-10-22T12:49:43.944Z,1.60
2017-10-22T12:52:11.422Z,1.47
2017-10-22T12:54:38.895Z,1.27
2017-10-22T12:57:06.453Z,1.77
2017-10-22T12:59:34.012Z,1.30
2017-10-22T13:02:02.245Z,1.20
2017-10-22T13:04:29.745Z,1.80
2017-10-22T13:06:57.305Z,1.47
2017-10-22T13:09:24.862Z,1.10
2017-10-22T13:11:52.376Z,1.53
2017-10-22T13:14:19.883Z,2.10
2017-10-22T13:16:47.438Z,1.07
2017-10-22T13:19:15.002Z,1.40
2017-10-22T13:21:42.553Z,1.30
2017-10-22T13:24:10.830Z,1.40
2017-10-22T13:26:38.284Z,1.30
2017-10-22T13:29:05.753Z,1.47
2017-10-22T13:31:35.635Z,1.10
2017-10-22T13:34:04.424Z,1.50
2017-10-22T13:36:32.314Z,2.07
2017-10-22T13:38:59.793Z,1.43
2017-10-22T13:41:28.026Z,1.43
2017-10-22T13:43:55.513Z,1.50
2017-10-22T13:46:23.739Z,1.70
2017-10-22T13:48:51.225Z,1.43
2017-10-22T13:51:18.788Z,1.20
2017-10-22T13:53:46.254Z,2.27
2017-10-22T13:56:13.799Z,1.20
2017-10-22T13:58:41.294Z,2.00
2017-10-22T14:01:08.812Z,1.57
2017-10-22T14:03:36.438Z,1.73
2017-10-22T14:06:03.942Z,1.53
2017-10-22T14:08:31.511Z,1.70
2017-10-22T14:10:59.064Z,2.10
2017-10-22T14:13:26.512Z,2.17
2017-10-22T14:15:53.978Z,1.67
2017-10-22T14:18:21.444Z,1.70
2017-10-22T14:20:49.686Z,1.80
2017-10-22T14:23:17.146Z,1.43
2017-10-22T14:25:44.716Z,1.87
2017-10-22T14:28:12.282Z,1.97
2017-10-22T14:30:39.753Z,2.07
2017-10-22T14:33:08.007Z,2.03
2017-10-22T14:35:35.574Z,1.77
2017-10-22T14:38:03.816Z,1.73
2017-10-22T14:40:31.287Z,1.40
2017-10-22T14:42:58.744Z,2.13
2017-10-22T14:45:26.317Z,1.70
2017-10-22T14:47:53.790Z,2.60
2017-10-22T14:50:22.031Z,1.40
2017-10-22T14:52:49.597Z,1.60
2017-10-22T14:55:17.837Z,2.00
2017-10-22T14:57:45.310Z,1.40
2017-10-22T15:00:12.773Z,1.50
2017-10-22T15:02:40.306Z,1.90
2017-10-22T15:05:07.777Z,2.03
2017-10-22T15:07:35.229Z,1.60
2017-10-22T15:10:02.699Z,1.90
2017-10-22T15:12:30.167Z,1.90
2017-10-22T15:14:57.628Z,1.87
2017-10-22T15:17:25.148Z,1.80
2017-10-22T15:19:52.610Z,2.03
2017-10-22T15:22:20.074Z,1.80
2017-10-22T15:24:47.553Z,1.87
2017-10-22T15:27:15.030Z,1.93
2017-10-22T15:29:42.569Z,1.83
2017-10-22T15:32:10.034Z,1.60
2017-10-22T15:34:37.506Z,2.10
2017-10-22T15:37:05.740Z,2.40
2017-10-22T15:39:33.321Z,2.33
2017-10-22T15:42:00.786Z,2.57
2017-10-22T15:44:28.334Z,2.03
2017-10-22T15:46:55.801Z,2.20
2017-10-22T15:49:23.361Z,2.90
2017-10-22T15:51:50.939Z,2.57
2017-10-22T15:54:19.252Z,1.73
2017-10-22T15:56:46.708Z,2.10
2017-10-22T15:59:15.804Z,1.60
2017-10-22T16:01:43.285Z,1.97
2017-10-22T16:04:10.746Z,1.63
2017-10-22T16:06:38.226Z,1.60
2017-10-22T16:09:05.699Z,2.20
2017-10-22T16:11:33.944Z,1.80
2017-10-22T16:14:01.430Z,2.00
2017-10-22T16:16:29.762Z,1.70
2017-10-22T16:18:57.293Z,1.57
2017-10-22T16:21:24.798Z,1.90
2017-10-22T16:23:52.282Z,2.00
2017-10-22T16:26:19.744Z,1.70
2017-10-22T16:28:47.294Z,2.73
2017-10-22T16:31:15.577Z,1.97
2017-10-22T16:33:43.156Z,1.75
2017-10-22T16:36:10.631Z,2.80
2017-10-22T16:38:38.134Z,1.73
2017-10-22T16:41:06.389Z,1.80
2017-10-22T16:43:33.874Z,2.23
2017-10-22T16:46:02.101Z,2.10
2017-10-22T16:48:29.577Z,1.70
2017-10-22T16:50:57.033Z,1.93
2017-10-22T16:53:24.602Z,1.87
2017-10-22T16:55:52.854Z,1.85
2017-10-22T16:58:20.339Z,2.17
2017-10-22T17:00:48.574Z,1.87
2017-10-22T17:03:16.117Z,2.33
2017-10-22T17:05:43.587Z,2.23
2017-10-22T17:08:11.058Z,1.80
2017-10-22T17:10:38.544Z,2.10
2017-10-22T17:13:06.778Z,1.60
2017-10-22T17:15:34.321Z,1.80
2017-10-22T17:18:01.793Z,1.70
2017-10-22T17:20:29.372Z,1.60
2017-10-22T17:22:56.829Z,1.70
2017-10-22T17:25:25.814Z,2.07
2017-10-22T17:27:53.274Z,1.90
2017-10-22T17:30:20.965Z,2.50
2017-10-22T17:32:49.200Z,1.70
2017-10-22T17:35:16.681Z,2.42
2017-10-22T17:37:44.238Z,1.70
2017-10-22T17:40:11.791Z,1.60
2017-10-22T17:42:39.365Z,1.60
2017-10-22T17:45:07.630Z,2.05
2017-10-22T17:47:35.102Z,1.90
2017-10-22T17:50:03.365Z,2.00
2017-10-22T17:52:30.862Z,2.53
2017-10-22T17:54:58.338Z,4.07
2017-10-22T17:57:25.813Z,2.13
2017-10-22T17:59:53.384Z,2.08
2017-10-22T18:02:20.947Z,2.35
2017-10-22T18:04:48.414Z,2.45
2017-10-22T18:07:16.666Z,2.37
2017-10-22T18:09:44.139Z,2.35
2017-10-22T18:12:11.623Z,2.50
2017-10-22T18:14:39.884Z,2.95
2017-10-22T18:17:08.130Z,2.95
2017-10-22T18:19:35.764Z,2.42
2017-10-22T18:22:04.244Z,2.45
2017-10-22T18:24:31.736Z,2.65
2017-10-22T18:26:59.204Z,2.30
2017-10-22T18:29:26.665Z,2.35
2017-10-22T18:31:54.141Z,2.10
2017-10-22T18:34:21.607Z,1.90
2017-10-22T18:36:49.107Z,3.37
2017-10-22T18:39:16.569Z,2.40
2017-10-22T18:41:44.030Z,2.70
2017-10-22T18:44:11.498Z,2.37
2017-10-22T18:46:38.975Z,2.45
2017-10-22T18:49:07.228Z,2.83
2017-10-22T18:51:34.710Z,2.22
2017-10-22T18:54:02.952Z,2.75
2017-10-22T18:56:30.533Z,2.42
2017-10-22T18:58:58.766Z,2.12
2017-10-22T19:01:26.258Z,2.30
2017-10-22T19:03:54.524Z,2.10
2017-10-22T19:06:22.009Z,2.55
2017-10-22T19:08:50.250Z,2.45
2017-10-22T19:11:17.718Z,2.40
2017-10-22T19:13:45.269Z,2.35
2017-10-22T19:16:12.732Z,2.97
2017-10-22T19:18:40.290Z,2.28
2017-10-22T19:21:07.909Z,2.92
2017-10-22T19:23:35.415Z,2.10
2017-10-22T19:26:02.983Z,2.92
2017-10-22T19:28:31.216Z,2.50
2017-10-22T19:30:58.681Z,2.80
2017-10-22T19:33:26.418Z,2.80
2017-10-22T19:35:53.881Z,2.90
2017-10-22T19:38:21.374Z,2.55
2017-10-22T19:40:48.852Z,2.15
2017-10-22T19:43:17.168Z,2.40
2017-10-22T19:45:44.630Z,2.62
2017-10-22T19:48:12.103Z,2.60
2017-10-22T19:50:39.569Z,2.10
2017-10-22T19:53:07.046Z,2.50
2017-10-22T19:55:34.601Z,1.95
2017-10-22T19:58:02.176Z,2.22
2017-10-22T20:00:30.433Z,2.70
2017-10-22T20:02:57.987Z,2.50
2017-10-22T20:05:25.459Z,2.47
2017-10-22T20:07:53.698Z,2.60
2017-10-22T20:10:21.194Z,2.53
2017-10-22T20:12:49.462Z,2.25
2017-10-22T20:15:17.696Z,2.95
2017-10-22T20:17:45.158Z,2.58
2017-10-22T20:20:12.641Z,2.20
2017-10-22T20:22:40.125Z,2.55
2017-10-22T20:25:08.365Z,2.08
2017-10-22T20:27:35.833Z,2.75
2017-10-22T20:30:03.451Z,2.45
2017-10-22T20:32:30.923Z,2.55
2017-10-22T20:34:58.379Z,2.10
2017-10-22T20:37:25.850Z,2.10
2017-10-22T20:39:53.417Z,2.50
2017-10-22T20:42:20.904Z,2.50
2017-10-22T20:44:49.149Z,1.98
2017-10-22T20:47:16.665Z,2.05
2017-10-22T20:49:44.128Z,2.55
2017-10-22T20:52:11.608Z,2.90
2017-10-22T20:54:39.138Z,1.77
2017-10-22T20:57:06.597Z,2.00
2017-10-22T20:59:34.078Z,2.30
2017-10-22T21:02:01.555Z,1.95
2017-10-22T21:04:29.051Z,2.40
2017-10-22T21:06:56.624Z,2.22
2017-10-22T21:09:24.089Z,2.50
2017-10-22T21:11:51.552Z,2.37
2017-10-22T21:14:19.037Z,2.45
2017-10-22T21:16:46.537Z,2.30
2017-10-22T21:19:14.129Z,2.08
2017-10-22T21:21:41.628Z,1.90
2017-10-22T21:24:09.932Z,2.03
2017-10-22T21:26:37.463Z,2.17
2017-10-22T21:29:05.684Z,1.92
2017-10-22T21:31:33.202Z,2.65
2017-10-22T21:34:01.438Z,1.90
2017-10-22T21:36:28.931Z,2.30
2017-10-22T21:38:57.152Z,2.10
2017-10-22T21:41:24.633Z,2.25
2017-10-22T21:43:52.112Z,2.40
2017-10-22T21:46:20.361Z,2.00
2017-10-22T21:48:47.890Z,2.75
2017-10-22T21:51:15.354Z,2.55
2017-10-22T21:53:42.853Z,2.60
2017-10-22T21:56:10.338Z,2.10
2017-10-22T21:58:37.865Z,3.37
2017-10-22T22:01:05.350Z,2.40
2017-10-22T22:03:32.882Z,3.62
2017-10-22T22:06:01.154Z,3.08
2017-10-22T22:08:28.637Z,2.95
2017-10-22T22:10:56.118Z,2.80
2017-10-22T22:13:23.599Z,2.67
2017-10-22T22:15:51.166Z,2.95
2017-10-22T22:18:18.642Z,2.87
2017-10-22T22:20:46.118Z,2.87
2017-10-22T22:23:14.429Z,2.50
2017-10-22T22:25:41.896Z,2.65
2017-10-22T22:28:09.389Z,3.00
2017-10-22T22:30:36.877Z,2.80
2017-10-22T22:33:04.398Z,3.35
2017-10-22T22:35:31.875Z,3.15
2017-10-22T22:38:00.110Z,2.87
2017-10-22T22:40:27.594Z,4.30
2017-10-22T22:42:55.072Z,2.50
2017-10-22T22:45:23.316Z,3.78
2017-10-22T22:47:50.777Z,2.70
2017-10-22T22:50:18.244Z,2.90
2017-10-22T22:52:45.796Z,3.62
2017-10-22T22:55:13.354Z,2.78
2017-10-22T22:57:40.934Z,2.70
2017-10-22T23:00:08.426Z,3.25
2017-10-22T23:02:35.901Z,3.30
2017-10-22T23:05:03.366Z,3.35
2017-10-22T23:07:30.838Z,3.35
2017-10-22T23:09:58.305Z,3.90
2017-10-22T23:12:25.866Z,3.53
2017-10-22T23:14:53.338Z,4.05
2017-10-22T23:17:21.589Z,3.80
2017-10-22T23:19:49.157Z,3.80
2017-10-22T23:22:17.423Z,3.60
2017-10-22T23:24:44.985Z,3.90
2017-10-22T23:27:13.230Z,3.60
2017-10-22T23:29:40.704Z,3.90
2017-10-22T23:32:08.181Z,4.00
2017-10-22T23:34:36.440Z,3.67
2017-10-22T23:37:04.017Z,4.07
2017-10-22T23:39:32.296Z,5.40
2017-10-22T23:42:00.521Z,4.50
2017-10-22T23:44:28.001Z,4.43
2017-10-22T23:46:55.457Z,4.78
2017-10-22T23:49:22.936Z,4.75
2017-10-22T23:51:51.192Z,4.82
2017-10-22T23:54:18.669Z,4.35
2017-10-22T23:56:46.909Z,5.47
2017-10-22T23:59:14.407Z,5.75
